Time;durP1;ratioP1;P1;durP2;ratioP2;P2;SDS_P1;SDS_P2;PMS_P1;PMS_P2;Temp;Humidity;BMP_temperature;BMP_pressure;BME280_temperature;BME280_humidity;BME280_pressure;Samples;Min_cycle;Max_cycle;Signal;HPM_P1;HPM_P2
2021/08/25 00:01:23;;;;;;;;;;;14.50;99.90;;;;;;5034423;28;20115;-73
2021/08/25 00:03:55;;;;;;;;;;;14.50;99.90;;;;;;5015950;28;20012;-73
2021/08/25 00:06:22;;;;;;;;;;;14.50;99.90;;;;;;5016283;28;20193;-73
2021/08/25 00:08:53;;;;;;;;;;;14.50;99.90;;;;;;5016274;28;20020;-73
2021/08/25 00:11:25;;;;;;;;;;;14.50;99.90;;;;;;5017422;28;19925;-73
2021/08/25 00:13:58;;;;;;;;;;;14.50;99.90;;;;;;5016306;28;20367;-73
2021/08/25 00:16:29;;;;;;;;;;;14.50;99.90;;;;;;5015862;28;20024;-73
2021/08/25 00:18:56;;;;;;;;;;;14.50;99.90;;;;;;5015993;28;20306;-73
2021/08/25 00:21:28;;;;;;;;;;;14.50;99.90;;;;;;5016076;28;20019;-73
2021/08/25 00:23:59;;;;;;;;;;;14.40;99.90;;;;;;5000708;28;19925;-72
2021/08/25 00:26:31;;;;;;;;;;;14.40;99.90;;;;;;5015929;28;19925;-73
2021/08/25 00:28:57;;;;;;;;;;;14.40;99.90;;;;;;5016151;28;20019;-73
2021/08/25 00:31:29;;;;;;;;;;;14.40;99.90;;;;;;5016294;28;20300;-73
2021/08/25 00:33:57;;;;;;;;;;;14.40;99.90;;;;;;5015801;28;19926;-72
2021/08/25 00:36:24;;;;;;;;;;;14.40;99.90;;;;;;5033250;28;19925;-72
2021/08/25 00:38:50;;;;;;;;;;;14.40;99.90;;;;;;5033566;28;20060;-73
2021/08/25 00:41:22;;;;;;;;;;;14.40;99.90;;;;;;5015578;28;20024;-71
2021/08/25 00:43:49;;;;;;;;;;;14.40;99.90;;;;;;5015789;28;19929;-73
2021/08/25 00:46:20;;;;;;;;;;;14.30;99.90;;;;;;5016283;28;20031;-72
2021/08/25 00:48:52;;;;;;;;;;;14.30;99.90;;;;;;5015370;28;20045;-73
2021/08/25 00:51:24;;;;;;;;;;;14.30;99.90;;;;;;5015459;28;19925;-73
2021/08/25 00:53:56;;;;;;;;;;;14.30;99.90;;;;;;5015522;28;19972;-73
2021/08/25 00:56:28;;;;;;;;;;;14.30;99.90;;;;;;5032774;28;19925;-72
2021/08/25 00:58:54;;;;;;;;;;;14.30;99.90;;;;;;5032936;28;19964;-73
2021/08/25 01:01:43;;;;;;;;;;;14.30;99.90;;;;;;5015001;28;19929;-73
2021/08/25 01:04:20;;;;;;;;;;;14.20;99.90;;;;;;4999369;28;19940;-73
2021/08/25 01:06:52;;;;;;;;;;;14.30;99.90;;;;;;5015255;28;19925;-73
2021/08/25 01:09:19;;;;;;;;;;;14.30;99.90;;;;;;5014729;28;20127;-73
2021/08/25 01:11:52;;;;;;;;;;;14.30;99.90;;;;;;5033154;28;20011;-73
2021/08/25 01:14:24;;;;;;;;;;;14.30;99.90;;;;;;5015323;28;19968;-73
2021/08/25 01:16:56;;;;;;;;;;;14.30;99.90;;;;;;4998407;28;20303;-73
2021/08/25 01:19:29;;;;;;;;;;;14.20;99.90;;;;;;5032354;28;19964;-73
2021/08/25 01:22:01;;;;;;;;;;;14.20;99.90;;;;;;5032063;28;19925;-72
2021/08/25 01:24:28;;;;;;;;;;;14.20;99.90;;;;;;5032206;28;20020;-74
2021/08/25 01:27:00;;;;;;;;;;;14.20;99.90;;;;;;4998661;28;20335;-73
2021/08/25 01:29:32;;;;;;;;;;;14.20;99.90;;;;;;4999306;28;19964;-73
2021/08/25 01:32:04;;;;;;;;;;;14.10;99.90;;;;;;5014397;28;19925;-72
2021/08/25 01:34:49;;;;;;;;;;;14.00;99.90;;;;;;5015778;28;19925;-73
2021/08/25 01:37:16;;;;;;;;;;;14.00;99.90;;;;;;4998350;28;19925;-72
2021/08/25 01:39:43;;;;;;;;;;;14.00;99.90;;;;;;5014798;28;20077;-73
2021/08/25 01:42:15;;;;;;;;;;;13.90;99.90;;;;;;5015134;28;19925;-73
2021/08/25 01:44:42;;;;;;;;;;;13.90;99.90;;;;;;5014718;28;19925;-73
2021/08/25 01:47:14;;;;;;;;;;;13.90;99.90;;;;;;5015333;28;20005;-73
2021/08/25 01:49:41;;;;;;;;;;;13.90;99.90;;;;;;5031880;28;20024;-72
2021/08/25 01:52:13;;;;;;;;;;;13.90;99.90;;;;;;5014618;28;20019;-72
2021/08/25 01:54:46;;;;;;;;;;;13.90;99.90;;;;;;5014732;28;19926;-73
2021/08/25 01:57:12;;;;;;;;;;;13.90;99.90;;;;;;5014751;28;19957;-73
2021/08/25 01:59:44;;;;;;;;;;;13.90;99.90;;;;;;5014612;28;19972;-72
2021/08/25 02:02:11;;;;;;;;;;;13.90;99.90;;;;;;5032046;28;20024;-74
2021/08/25 02:04:43;;;;;;;;;;;13.90;99.90;;;;;;4998908;28;20007;-73
2021/08/25 02:07:16;;;;;;;;;;;13.80;99.90;;;;;;4998579;28;19925;-72
2021/08/25 02:09:43;;;;;;;;;;;13.80;99.90;;;;;;5014401;28;20016;-73
2021/08/25 02:12:09;;;;;;;;;;;13.80;99.90;;;;;;5014545;28;19933;-73
2021/08/25 02:14:41;;;;;;;;;;;13.80;99.90;;;;;;5014382;28;20295;-73
2021/08/25 02:17:13;;;;;;;;;;;13.80;99.90;;;;;;5031260;28;20015;-72
2021/08/25 02:19:40;;;;;;;;;;;13.80;99.90;;;;;;5031469;28;19965;-73
2021/08/25 02:22:12;;;;;;;;;;;13.80;99.90;;;;;;5014702;28;20031;-73
2021/08/25 02:24:43;;;;;;;;;;;13.70;99.90;;;;;;5031881;28;20023;-73
2021/08/25 02:27:15;;;;;;;;;;;13.70;99.90;;;;;;5016036;28;19931;-72
2021/08/25 02:29:55;;;;;;;;;;;13.60;99.90;;;;;;5017452;28;20028;-74
2021/08/25 02:32:25;;;;;;;;;;;13.60;99.90;;;;;;5017652;28;19964;-72
2021/08/25 02:34:52;;;;;;;;;;;13.60;99.90;;;;;;5001070;28;20430;-72
2021/08/25 02:37:24;;;;;;;;;;;13.50;99.90;;;;;;5034922;28;19947;-73
2021/08/25 02:39:51;;;;;;;;;;;13.50;99.90;;;;;;5017605;28;20020;-72
2021/08/25 02:42:22;;;;;;;;;;;13.40;99.90;;;;;;5017287;28;19932;-73
2021/08/25 02:44:54;;;;;;;;;;;13.40;99.90;;;;;;5001907;28;20012;-74
2021/08/25 02:47:21;;;;;;;;;;;13.30;99.90;;;;;;5016859;28;19964;-72
2021/08/25 02:49:50;;;;;;;;;;;13.30;99.90;;;;;;5017096;28;20338;-72
2021/08/25 02:52:16;;;;;;;;;;;13.30;99.90;;;;;;5034893;28;19967;-72
2021/08/25 02:54:48;;;;;;;;;;;13.30;99.90;;;;;;5017048;28;20277;-72
2021/08/25 02:57:19;;;;;;;;;;;13.20;99.90;;;;;;5016983;28;19929;-72
2021/08/25 02:59:46;;;;;;;;;;;13.20;99.90;;;;;;5016819;28;19964;-72
2021/08/25 03:02:13;;;;;;;;;;;13.20;99.90;;;;;;5034618;28;20023;-72
2021/08/25 03:04:39;;;;;;;;;;;13.10;99.90;;;;;;5016840;28;19929;-73
2021/08/25 03:07:11;;;;;;;;;;;13.00;99.90;;;;;;5034508;28;20443;-72
2021/08/25 03:09:43;;;;;;;;;;;13.00;99.90;;;;;;5034429;28;20024;-72
2021/08/25 03:12:14;;;;;;;;;;;13.00;99.90;;;;;;5017486;28;19925;-73
2021/08/25 03:14:46;;;;;;;;;;;12.90;99.90;;;;;;5016730;28;19928;-74
2021/08/25 03:17:18;;;;;;;;;;;12.90;99.90;;;;;;5016592;28;19931;-72
2021/08/25 03:19:44;;;;;;;;;;;12.90;99.90;;;;;;5016562;28;20067;-73
2021/08/25 03:22:11;;;;;;;;;;;12.90;99.90;;;;;;5016613;28;19952;-73
2021/08/25 03:24:38;;;;;;;;;;;12.80;99.90;;;;;;5034330;28;20396;-72
2021/08/25 03:27:04;;;;;;;;;;;12.80;99.90;;;;;;5016402;28;20363;-72
2021/08/25 03:29:36;;;;;;;;;;;12.80;99.90;;;;;;5000914;28;20394;-72
2021/08/25 03:32:08;;;;;;;;;;;12.80;99.90;;;;;;5034154;28;19926;-72
2021/08/25 03:34:40;;;;;;;;;;;12.70;99.90;;;;;;5016275;28;19936;-72
2021/08/25 03:37:12;;;;;;;;;;;12.70;99.90;;;;;;5016915;28;20020;-74
2021/08/25 03:39:38;;;;;;;;;;;12.70;99.90;;;;;;5033218;28;19967;-73
2021/08/25 03:42:10;;;;;;;;;;;12.60;99.90;;;;;;5016175;28;20364;-74
2021/08/25 03:44:41;;;;;;;;;;;12.60;99.90;;;;;;5012783;28;19925;-72
2021/08/25 03:47:08;;;;;;;;;;;12.60;99.90;;;;;;5029438;28;19979;-75
2021/08/25 03:49:36;;;;;;;;;;;12.50;99.90;;;;;;5015681;28;20008;-71
2021/08/25 03:52:08;;;;;;;;;;;12.50;99.90;;;;;;5016352;28;20346;-73
2021/08/25 03:54:40;;;;;;;;;;;12.40;99.90;;;;;;5016545;28;20032;-73
2021/08/25 03:57:11;;;;;;;;;;;12.40;99.90;;;;;;5032850;28;20020;-73
2021/08/25 03:59:43;;;;;;;;;;;12.40;99.90;;;;;;4999638;28;19932;-72
2021/08/25 04:02:14;;;;;;;;;;;12.40;99.90;;;;;;5015601;28;20296;-72
2021/08/25 04:04:41;;;;;;;;;;;12.40;99.90;;;;;;5015716;28;20352;-72
2021/08/25 04:07:08;;;;;;;;;;;12.40;99.90;;;;;;5014885;28;19956;-73
2021/08/25 04:09:35;;;;;;;;;;;12.40;99.90;;;;;;4998745;28;20031;-72
2021/08/25 04:12:07;;;;;;;;;;;12.40;99.90;;;;;;5016149;28;20028;-73
2021/08/25 04:14:33;;;;;;;;;;;12.30;99.90;;;;;;5015128;28;19931;-72
2021/08/25 04:17:05;;;;;;;;;;;12.30;99.90;;;;;;5032370;28;19925;-72
2021/08/25 04:19:37;;;;;;;;;;;12.30;99.90;;;;;;5015793;28;20004;-73
2021/08/25 04:22:08;;;;;;;;;;;12.20;99.90;;;;;;5015803;28;20412;-72
2021/08/25 04:24:36;;;;;;;;;;;12.20;99.90;;;;;;5032477;28;19960;-73
2021/08/25 04:27:08;;;;;;;;;;;12.20;99.90;;;;;;5032043;28;19924;-72
2021/08/25 04:29:39;;;;;;;;;;;12.20;99.90;;;;;;5014365;28;19925;-73
2021/08/25 04:32:06;;;;;;;;;;;12.10;99.90;;;;;;5014693;28;20028;-72
2021/08/25 04:34:38;;;;;;;;;;;12.20;99.90;;;;;;5016002;28;20003;-72
2021/08/25 04:37:04;;;;;;;;;;;12.10;99.90;;;;;;5014920;28;19979;-72
2021/08/25 04:39:36;;;;;;;;;;;12.10;99.90;;;;;;5015137;28;20024;-73
2021/08/25 04:42:08;;;;;;;;;;;12.10;99.90;;;;;;5015859;28;19925;-72
2021/08/25 04:44:39;;;;;;;;;;;12.10;99.90;;;;;;5015049;28;20402;-71
2021/08/25 04:47:11;;;;;;;;;;;12.00;99.90;;;;;;5014653;28;20016;-72
2021/08/25 04:49:43;;;;;;;;;;;12.00;99.90;;;;;;5014515;28;19925;-73
2021/08/25 04:52:14;;;;;;;;;;;12.00;99.90;;;;;;5014788;28;20380;-72
2021/08/25 04:54:46;;;;;;;;;;;12.00;99.90;;;;;;5032555;28;19925;-72
2021/08/25 04:57:12;;;;;;;;;;;12.00;99.90;;;;;;5014477;28;19932;-72
2021/08/25 04:59:39;;;;;;;;;;;12.00;99.90;;;;;;4998459;28;19932;-73
2021/08/25 05:02:11;;;;;;;;;;;12.00;99.90;;;;;;5014760;28;19936;-72
2021/08/25 05:04:42;;;;;;;;;;;11.90;99.90;;;;;;5032363;28;19931;-72
2021/08/25 05:07:14;;;;;;;;;;;11.90;99.90;;;;;;5032032;28;20299;-72
2021/08/25 05:09:41;;;;;;;;;;;11.90;99.90;;;;;;5014483;28;19968;-72
2021/08/25 05:12:08;;;;;;;;;;;11.90;99.90;;;;;;5032295;28;19956;-72
2021/08/25 05:14:39;;;;;;;;;;;11.90;99.90;;;;;;5032308;28;20024;-72
2021/08/25 05:17:11;;;;;;;;;;;11.90;99.90;;;;;;5014243;28;19929;-72
2021/08/25 05:19:38;;;;;;;;;;;11.90;99.90;;;;;;5014429;28;20015;-72
2021/08/25 05:22:04;;;;;;;;;;;11.90;99.90;;;;;;5032160;28;20020;-71
2021/08/25 05:24:31;;;;;;;;;;;12.00;99.90;;;;;;5014449;28;20019;-73
2021/08/25 05:26:57;;;;;;;;;;;12.00;99.90;;;;;;5031782;28;19932;-72
2021/08/25 05:29:29;;;;;;;;;;;12.00;99.90;;;;;;5014256;28;20283;-73
2021/08/25 05:32:01;;;;;;;;;;;12.00;99.90;;;;;;5014321;28;20110;-72
2021/08/25 05:34:33;;;;;;;;;;;12.00;99.90;;;;;;5014238;28;19969;-72
2021/08/25 05:37:04;;;;;;;;;;;12.00;99.90;;;;;;5014933;28;20027;-72
2021/08/25 05:39:36;;;;;;;;;;;12.00;99.90;;;;;;5014296;28;20025;-73
2021/08/25 05:42:03;;;;;;;;;;;12.00;99.90;;;;;;5014201;28;19956;-72
2021/08/25 05:44:34;;;;;;;;;;;12.10;99.90;;;;;;5031837;28;19929;-73
2021/08/25 05:47:06;;;;;;;;;;;12.00;99.90;;;;;;5014735;28;19980;-74
2021/08/25 05:49:38;;;;;;;;;;;12.00;99.90;;;;;;5014107;28;19925;-72
2021/08/25 05:52:09;;;;;;;;;;;12.10;99.90;;;;;;5014146;28;19925;-72
2021/08/25 05:54:41;;;;;;;;;;;12.10;99.90;;;;;;5031825;28;19991;-72
2021/08/25 05:57:13;;;;;;;;;;;12.20;99.90;;;;;;5014588;28;20397;-73
2021/08/25 05:59:44;;;;;;;;;;;12.20;99.90;;;;;;5031763;28;20012;-72
2021/08/25 06:02:11;;;;;;;;;;;12.20;99.90;;;;;;5033308;28;19929;-75
2021/08/25 06:04:43;;;;;;;;;;;12.30;99.90;;;;;;5018109;28;20307;-72
2021/08/25 06:07:14;;;;;;;;;;;12.30;99.90;;;;;;5017643;28;20457;-72
2021/08/25 06:09:46;;;;;;;;;;;12.40;99.90;;;;;;5017771;28;20028;-72
2021/08/25 06:12:17;;;;;;;;;;;12.40;99.90;;;;;;5017802;28;20043;-74
2021/08/25 06:14:49;;;;;;;;;;;12.50;99.90;;;;;;5035650;28;19932;-72
2021/08/25 06:17:21;;;;;;;;;;;12.60;99.90;;;;;;5017648;28;20322;-72
2021/08/25 06:19:52;;;;;;;;;;;12.60;99.90;;;;;;5017736;28;20020;-73
2021/08/25 06:22:19;;;;;;;;;;;12.70;99.90;;;;;;5017742;28;20020;-72
2021/08/25 06:24:51;;;;;;;;;;;12.80;99.90;;;;;;5017673;28;20020;-73
2021/08/25 06:27:23;;;;;;;;;;;12.90;99.90;;;;;;5017236;28;20394;-72
2021/08/25 06:29:54;;;;;;;;;;;12.90;99.90;;;;;;5035322;28;20028;-72
2021/08/25 06:32:21;;;;;;;;;;;13.00;99.90;;;;;;5017604;28;19965;-73
2021/08/25 06:34:53;;;;;;;;;;;13.00;99.90;;;;;;5018388;28;19940;-71
2021/08/25 06:37:24;;;;;;;;;;;13.10;99.90;;;;;;5035293;28;19925;-73
2021/08/25 06:39:51;;;;;;;;;;;13.20;99.90;;;;;;5017676;28;20354;-72
2021/08/25 06:42:17;;;;;;;;;;;13.30;99.90;;;;;;5034973;28;20400;-75
2021/08/25 06:44:44;;;;;;;;;;;13.40;99.90;;;;;;5017386;28;19987;-72
2021/08/25 06:47:11;;;;;;;;;;;13.40;99.90;;;;;;5016743;28;20319;-72
2021/08/25 06:49:37;;;;;;;;;;;13.50;99.90;;;;;;5034765;28;19973;-72
2021/08/25 06:52:04;;;;;;;;;;;13.60;99.90;;;;;;5000971;28;20016;-75
2021/08/25 06:54:31;;;;;;;;;;;13.60;99.90;;;;;;5017212;28;19976;-73
2021/08/25 06:57:03;;;;;;;;;;;13.70;99.90;;;;;;5034353;28;20024;-74
2021/08/25 06:59:34;;;;;;;;;;;13.80;99.90;;;;;;5034639;28;19935;-72
2021/08/25 07:02:06;;;;;;;;;;;13.90;99.90;;;;;;5017865;28;20032;-73
2021/08/25 07:04:45;;;;;;;;;;;13.90;99.90;;;;;;5034687;28;19925;-73
2021/08/25 07:07:16;;;;;;;;;;;14.00;99.90;;;;;;5017627;28;20388;-73
2021/08/25 07:09:48;;;;;;;;;;;14.10;99.90;;;;;;5001125;28;20340;-72
2021/08/25 07:12:21;;;;;;;;;;;14.20;99.90;;;;;;5017691;28;20372;-74
2021/08/25 07:14:53;;;;;;;;;;;14.20;99.90;;;;;;5015712;28;19999;-72
2021/08/25 07:17:25;;;;;;;;;;;14.30;99.90;;;;;;5016246;28;19925;-73
2021/08/25 07:19:52;;;;;;;;;;;14.40;99.90;;;;;;5016899;28;19960;-72
2021/08/25 07:22:19;;;;;;;;;;;14.40;99.90;;;;;;5034236;28;20016;-73
2021/08/25 07:24:50;;;;;;;;;;;14.50;99.90;;;;;;5034170;28;19925;-73
2021/08/25 07:27:17;;;;;;;;;;;14.60;99.90;;;;;;5016055;28;20376;-72
2021/08/25 07:29:44;;;;;;;;;;;14.70;99.90;;;;;;5034051;28;19979;-73
2021/08/25 07:32:10;;;;;;;;;;;14.70;99.90;;;;;;5016343;28;20027;-72
2021/08/25 07:34:37;;;;;;;;;;;14.80;99.90;;;;;;5034164;28;19963;-74
2021/08/25 07:37:08;;;;;;;;;;;14.80;99.90;;;;;;5033907;28;20028;-72
2021/08/25 07:39:40;;;;;;;;;;;14.90;99.90;;;;;;5033787;28;20285;-72
2021/08/25 07:42:12;;;;;;;;;;;15.00;99.90;;;;;;5033967;28;19929;-72
2021/08/25 07:44:43;;;;;;;;;;;15.10;99.90;;;;;;5016112;28;19935;-73
2021/08/25 07:47:15;;;;;;;;;;;15.20;99.90;;;;;;5015759;28;20358;-72
2021/08/25 07:49:47;;;;;;;;;;;15.30;99.90;;;;;;4999680;28;19929;-72
2021/08/25 07:52:19;;;;;;;;;;;15.30;99.90;;;;;;5016964;28;19980;-73
2021/08/25 07:54:50;;;;;;;;;;;15.40;99.90;;;;;;5033764;28;20012;-74
2021/08/25 07:57:17;;;;;;;;;;;15.50;99.90;;;;;;5033342;28;19973;-72
2021/08/25 07:59:44;;;;;;;;;;;15.60;99.90;;;;;;5033590;28;20027;-72
2021/08/25 08:02:10;;;;;;;;;;;15.70;99.90;;;;;;5016373;28;19968;-72
2021/08/25 08:04:42;;;;;;;;;;;15.80;99.90;;;;;;5016670;28;19980;-72
2021/08/25 08:07:14;;;;;;;;;;;15.90;99.90;;;;;;5016393;28;20019;-73
2021/08/25 08:09:45;;;;;;;;;;;16.00;99.90;;;;;;5015483;28;20303;-73
2021/08/25 08:12:17;;;;;;;;;;;16.10;99.90;;;;;;5033538;28;20020;-72
2021/08/25 08:14:44;;;;;;;;;;;16.10;99.90;;;;;;5015706;28;19929;-73
2021/08/25 08:17:10;;;;;;;;;;;16.20;99.90;;;;;;5015307;28;20024;-73
2021/08/25 08:19:42;;;;;;;;;;;16.30;99.90;;;;;;5016310;28;20016;-73
2021/08/25 08:22:14;;;;;;;;;;;16.30;99.90;;;;;;5015503;28;20298;-73
2021/08/25 08:24:45;;;;;;;;;;;16.40;99.90;;;;;;5015227;28;20016;-72
2021/08/25 08:27:17;;;;;;;;;;;16.50;99.90;;;;;;5015890;28;20474;-72
2021/08/25 08:29:49;;;;;;;;;;;16.60;99.90;;;;;;5015123;28;19931;-73
2021/08/25 08:32:17;;;;;;;;;;;16.70;99.90;;;;;;5015100;28;20313;-73
2021/08/25 08:34:44;;;;;;;;;;;16.80;99.90;;;;;;5015370;28;19975;-73
2021/08/25 08:37:15;;;;;;;;;;;16.80;99.90;;;;;;5015801;28;19931;-73
2021/08/25 08:39:47;;;;;;;;;;;16.90;99.90;;;;;;5015088;28;19925;-72
2021/08/25 08:42:29;;;;;;;;;;;17.00;99.90;;;;;;5016010;28;19925;-73
2021/08/25 08:45:02;;;;;;;;;;;17.10;99.90;;;;;;5015051;28;20372;-73
2021/08/25 08:47:34;;;;;;;;;;;17.20;99.90;;;;;;5015128;28;20047;-74
2021/08/25 08:50:06;;;;;;;;;;;17.30;99.90;;;;;;5014910;28;19925;-73
2021/08/25 08:52:37;;;;;;;;;;;17.40;99.90;;;;;;5014851;28;20012;-72
2021/08/25 08:55:09;;;;;;;;;;;17.50;99.90;;;;;;5014717;28;20413;-73
2021/08/25 08:57:36;;;;;;;;;;;17.60;99.90;;;;;;5015036;28;19968;-72
2021/08/25 09:00:03;;;;;;;;;;;17.60;99.90;;;;;;4998897;28;20303;-75
2021/08/25 09:02:39;;;;;;;;;;;17.70;99.90;;;;;;4999190;28;20388;-72
2021/08/25 09:05:15;;;;;;;;;;;17.70;99.90;;;;;;4998865;28;19925;-74
2021/08/25 09:08:02;;;;;;;;;;;17.80;99.90;;;;;;5014678;28;20036;-73
2021/08/25 09:10:31;;;;;;;;;;;17.80;99.90;;;;;;5014666;28;20403;-73
2021/08/25 09:13:02;;;;;;;;;;;17.90;99.90;;;;;;5032273;28;20019;-73
2021/08/25 09:15:35;;;;;;;;;;;17.90;99.90;;;;;;5031870;28;19936;-73
2021/08/25 09:18:08;;;;;;;;;;;18.00;99.90;;;;;;5014489;28;20345;-72
2021/08/25 09:20:40;;;;;;;;;;;18.10;99.90;;;;;;5014502;28;20012;-73
2021/08/25 09:23:11;;;;;;;;;;;18.10;99.90;;;;;;5014414;28;19929;-73
2021/08/25 09:25:43;;;;;;;;;;;18.20;99.90;;;;;;4998570;28;20401;-72
2021/08/25 09:28:17;;;;;;;;;;;18.20;99.90;;;;;;5015172;28;19925;-73
2021/08/25 09:30:51;;;;;;;;;;;18.30;99.90;;;;;;5032069;28;20024;-72
2021/08/25 09:33:32;;;;;;;;;;;18.40;99.90;;;;;;4999010;28;19925;-73
2021/08/25 09:36:11;;;;;;;;;;;18.50;99.90;;;;;;5013555;28;19925;-72
2021/08/25 09:39:03;;;;;;;;;;;18.60;99.90;;;;;;5014392;28;20583;-72
2021/08/25 09:41:35;;;;;;;;;;;18.60;99.90;;;;;;4998708;28;19932;-72
2021/08/25 09:44:15;;;;;;;;;;;18.80;99.90;;;;;;4998622;28;20028;-73
2021/08/25 09:46:51;;;;;;;;;;;18.80;99.90;;;;;;5013896;28;20019;-73
2021/08/25 09:49:17;;;;;;;;;;;18.80;99.90;;;;;;5014415;28;20011;-72
2021/08/25 09:51:51;;;;;;;;;;;19.00;99.90;;;;;;5032078;28;19924;-72
2021/08/25 09:54:22;;;;;;;;;;;19.10;99.90;;;;;;5014290;28;19947;-73
2021/08/25 09:56:54;;;;;;;;;;;19.10;99.90;;;;;;5013639;28;19925;-72
2021/08/25 09:59:26;;;;;;;;;;;19.20;99.90;;;;;;5031800;28;20395;-72
2021/08/25 10:01:53;;;;;;;;;;;19.30;99.90;;;;;;5014085;28;19931;-72
2021/08/25 10:04:27;;;;;;;;;;;19.30;99.90;;;;;;5014997;28;19925;-73
2021/08/25 10:07:00;;;;;;;;;;;19.40;99.90;;;;;;4998604;28;19933;-73
2021/08/25 10:09:31;;;;;;;;;;;19.40;99.90;;;;;;4998322;28;20290;-73
2021/08/25 10:12:00;;;;;;;;;;;19.40;99.90;;;;;;5014065;28;20025;-73
2021/08/25 10:14:32;;;;;;;;;;;19.50;99.90;;;;;;5014919;28;20020;-72
2021/08/25 10:16:58;;;;;;;;;;;19.60;99.90;;;;;;5013585;28;20016;-72
2021/08/25 10:19:40;;;;;;;;;;;19.60;99.90;;;;;;5031514;28;20410;-73
2021/08/25 10:22:14;;;;;;;;;;;19.60;99.90;;;;;;5031624;28;20015;-73
2021/08/25 10:24:55;;;;;;;;;;;19.70;99.90;;;;;;5014821;28;19925;-73
2021/08/25 10:27:22;;;;;;;;;;;19.70;99.90;;;;;;5013816;28;20019;-72
2021/08/25 10:30:06;;;;;;;;;;;19.70;99.90;;;;;;5013733;28;19929;-72
2021/08/25 10:32:59;;;;;;;;;;;19.80;99.90;;;;;;5013958;28;20013;-73
2021/08/25 10:35:31;;;;;;;;;;;19.80;99.90;;;;;;5031129;28;19925;-72
2021/08/25 10:38:23;;;;;;;;;;;19.90;99.90;;;;;;5031415;28;20000;-73
2021/08/25 10:41:01;;;;;;;;;;;19.90;99.90;;;;;;5013878;28;20243;-72
2021/08/25 10:43:40;;;;;;;;;;;19.90;99.90;;;;;;5013752;28;19960;-74
2021/08/25 10:46:13;;;;;;;;;;;20.00;99.90;;;;;;5031091;28;19925;-73
2021/08/25 10:48:50;;;;;;;;;;;20.10;99.90;;;;;;5015860;28;19932;-72
2021/08/25 10:51:30;;;;;;;;;;;20.20;99.90;;;;;;5017399;28;20020;-72
2021/08/25 10:53:58;;;;;;;;;;;20.30;99.90;;;;;;5017390;28;20012;-72
2021/08/25 10:56:31;;;;;;;;;;;20.30;99.90;;;;;;5017806;28;19973;-72
2021/08/25 10:59:00;;;;;;;;;;;20.30;99.90;;;;;;5017185;28;20012;-72
2021/08/25 11:01:34;;;;;;;;;;;20.00;99.90;;;;;;5017285;28;19925;-72
2021/08/25 11:04:18;;;;;;;;;;;20.00;99.90;;;;;;5016783;28;19968;-73
2021/08/25 11:06:46;;;;;;;;;;;20.00;99.90;;;;;;5016620;28;19960;-72
2021/08/25 11:09:12;;;;;;;;;;;20.10;99.90;;;;;;5017130;28;19971;-72
2021/08/25 11:11:47;;;;;;;;;;;20.20;99.90;;;;;;5034521;28;20462;-73
2021/08/25 11:14:17;;;;;;;;;;;20.30;99.90;;;;;;5016801;28;19936;-73
2021/08/25 11:16:43;;;;;;;;;;;20.40;99.90;;;;;;5016490;28;20019;-72
2021/08/25 11:19:20;;;;;;;;;;;20.50;99.90;;;;;;5016595;28;19925;-72
2021/08/25 11:21:52;;;;;;;;;;;20.60;99.90;;;;;;5016676;28;20400;-72
2021/08/25 11:24:19;;;;;;;;;;;20.70;99.90;;;;;;5034183;28;20011;-72
2021/08/25 11:26:46;;;;;;;;;;;20.70;99.90;;;;;;5016258;28;20016;-72
2021/08/25 11:29:19;;;;;;;;;;;20.70;99.90;;;;;;5016579;28;19926;-72
2021/08/25 11:31:51;;;;;;;;;;;20.80;99.90;;;;;;5016554;28;20040;-73
2021/08/25 11:34:19;;;;;;;;;;;20.80;99.90;;;;;;5034089;28;19925;-71
2021/08/25 11:36:55;;;;;;;;;;;20.90;99.90;;;;;;5033697;28;19925;-73
2021/08/25 11:39:27;;;;;;;;;;;21.00;99.90;;;;;;5016323;28;19926;-73
2021/08/25 11:41:59;;;;;;;;;;;21.10;99.90;;;;;;5016359;28;20363;-72
2021/08/25 11:44:44;;;;;;;;;;;21.10;99.90;;;;;;5016203;28;20455;-73
2021/08/25 11:47:12;;;;;;;;;;;21.20;99.90;;;;;;5016176;28;19956;-73
2021/08/25 11:49:45;;;;;;;;;;;21.20;99.90;;;;;;5017039;28;20024;-73
2021/08/25 11:52:14;;;;;;;;;;;21.10;99.90;;;;;;5016256;28;19925;-72
2021/08/25 11:54:46;;;;;;;;;;;21.00;99.90;;;;;;5016111;28;19925;-73
2021/08/25 11:57:13;;;;;;;;;;;21.00;99.90;;;;;;5033442;28;19925;-73
2021/08/25 11:59:55;;;;;;;;;;;20.90;99.90;;;;;;5015345;28;20039;-72
2021/08/25 12:02:26;;;;;;;;;;;21.00;99.90;;;;;;5000433;28;19925;-72
2021/08/25 12:05:17;;;;;;;;;;;21.00;99.90;;;;;;5033525;28;20357;-72
2021/08/25 12:08:04;;;;;;;;;;;21.10;99.90;;;;;;5015748;28;19980;-72
2021/08/25 12:10:32;;;;;;;;;;;21.20;99.90;;;;;;5015816;28;20031;-72
2021/08/25 12:12:59;;;;;;;;;;;21.20;99.90;;;;;;4999409;28;19925;-72
2021/08/25 12:15:40;;;;;;;;;;;21.20;99.90;;;;;;5015529;28;19931;-72
2021/08/25 12:18:13;;;;;;;;;;;21.20;99.90;;;;;;5016437;28;19949;-73
2021/08/25 12:20:46;;;;;;;;;;;21.20;99.90;;;;;;5000107;28;20358;-72
2021/08/25 12:23:19;;;;;;;;;;;21.30;99.90;;;;;;5015570;28;20375;-72
2021/08/25 12:25:52;;;;;;;;;;;21.30;99.90;;;;;;5016139;28;19925;-73
2021/08/25 12:28:34;;;;;;;;;;;21.30;99.90;;;;;;5015255;28;19925;-72
2021/08/25 12:31:17;;;;;;;;;;;21.30;99.90;;;;;;5032993;28;19929;-72
2021/08/25 12:33:54;;;;;;;;;;;21.30;99.90;;;;;;4999715;28;20016;-75
2021/08/25 12:36:26;;;;;;;;;;;21.20;99.90;;;;;;5032949;28;19999;-72
2021/08/25 12:38:57;;;;;;;;;;;21.20;99.90;;;;;;5015375;28;19925;-72
2021/08/25 12:41:29;;;;;;;;;;;21.30;99.90;;;;;;5015245;28;19925;-73
2021/08/25 12:43:56;;;;;;;;;;;21.50;99.90;;;;;;5032802;28;19964;-72
2021/08/25 12:46:27;;;;;;;;;;;21.70;99.90;;;;;;5015594;28;20406;-73
2021/08/25 12:48:59;;;;;;;;;;;21.80;99.90;;;;;;5032705;28;19925;-72
2021/08/25 12:51:31;;;;;;;;;;;21.80;99.40;;;;;;5032707;28;19998;-72
2021/08/25 12:54:02;;;;;;;;;;;21.90;98.40;;;;;;5032614;28;19925;-73
2021/08/25 12:56:34;;;;;;;;;;;21.80;96.90;;;;;;5032327;28;20016;-74
2021/08/25 12:59:01;;;;;;;;;;;21.80;99.90;;;;;;5032458;28;19925;-72
2021/08/25 13:01:27;;;;;;;;;;;21.90;97.20;;;;;;5014752;28;20019;-72
2021/08/25 13:03:54;;;;;;;;;;;21.90;99.90;;;;;;5014914;28;19925;-72
2021/08/25 13:06:21;;;;;;;;;;;22.00;97.70;;;;;;5014359;28;19993;-73
2021/08/25 13:08:52;;;;;;;;;;;22.20;97.50;;;;;;5015566;28;20463;-73
2021/08/25 13:11:24;;;;;;;;;;;22.30;96.20;;;;;;5014974;28;20467;-73
2021/08/25 13:13:56;;;;;;;;;;;22.20;95.00;;;;;;5014720;28;20453;-73
2021/08/25 13:16:28;;;;;;;;;;;22.20;97.50;;;;;;5014122;28;19964;-73
2021/08/25 13:18:59;;;;;;;;;;;22.30;95.50;;;;;;4998821;28;20478;-72
2021/08/25 13:21:31;;;;;;;;;;;22.20;95.70;;;;;;5014578;28;20023;-73
2021/08/25 13:24:03;;;;;;;;;;;22.30;95.60;;;;;;5015603;28;19925;-72
2021/08/25 13:26:34;;;;;;;;;;;22.40;95.90;;;;;;5015018;28;19929;-73
2021/08/25 13:29:06;;;;;;;;;;;22.30;94.80;;;;;;5014380;28;20027;-72
2021/08/25 13:31:32;;;;;;;;;;;22.40;95.70;;;;;;5031902;28;19932;-73
2021/08/25 13:33:59;;;;;;;;;;;22.40;95.70;;;;;;5014395;28;20023;-72
2021/08/25 13:36:31;;;;;;;;;;;22.50;94.70;;;;;;5013988;28;19925;-72
2021/08/25 13:39:02;;;;;;;;;;;22.70;95.40;;;;;;5014201;28;19932;-72
2021/08/25 13:41:34;;;;;;;;;;;22.80;94.70;;;;;;5031982;28;20166;-72
2021/08/25 13:44:06;;;;;;;;;;;22.90;94.40;;;;;;5031942;28;20288;-72
2021/08/25 13:46:33;;;;;;;;;;;22.90;93.60;;;;;;5014023;28;20348;-72
2021/08/25 13:49:00;;;;;;;;;;;23.00;93.40;;;;;;5014392;28;20031;-74
2021/08/25 13:51:32;;;;;;;;;;;23.00;93.90;;;;;;5014806;28;20384;-73
2021/08/25 13:54:04;;;;;;;;;;;23.00;93.00;;;;;;5015035;28;19967;-72
2021/08/25 13:56:35;;;;;;;;;;;22.90;93.20;;;;;;5031619;28;20361;-72
2021/08/25 13:59:07;;;;;;;;;;;23.00;93.00;;;;;;5014902;28;19995;-72
2021/08/25 14:01:39;;;;;;;;;;;23.00;91.70;;;;;;5015038;28;20410;-73
2021/08/25 14:04:10;;;;;;;;;;;23.00;90.90;;;;;;5031808;28;20323;-72
2021/08/25 14:06:42;;;;;;;;;;;22.90;90.80;;;;;;5031400;28;19964;-72
2021/08/25 14:09:13;;;;;;;;;;;23.00;93.50;;;;;;5015078;28;20008;-72
2021/08/25 14:11:45;;;;;;;;;;;22.90;92.00;;;;;;5013907;28;20037;-72
2021/08/25 14:14:12;;;;;;;;;;;23.00;92.70;;;;;;5014129;28;19959;-73
2021/08/25 14:16:43;;;;;;;;;;;23.20;93.40;;;;;;5031398;28;20434;-72
2021/08/25 14:19:15;;;;;;;;;;;23.40;93.20;;;;;;5013795;28;20016;-72
2021/08/25 14:21:47;;;;;;;;;;;23.50;91.20;;;;;;4998376;28;20032;-72
2021/08/25 14:24:13;;;;;;;;;;;23.70;90.40;;;;;;5034681;28;20016;-72
2021/08/25 14:26:45;;;;;;;;;;;23.80;90.30;;;;;;5035187;28;20040;-72
2021/08/25 14:29:13;;;;;;;;;;;23.90;90.40;;;;;;5017459;28;19925;-75
2021/08/25 14:31:40;;;;;;;;;;;24.00;89.70;;;;;;5001243;28;19925;-72
2021/08/25 14:34:11;;;;;;;;;;;24.20;87.70;;;;;;5018438;28;20016;-72
2021/08/25 14:36:43;;;;;;;;;;;24.30;85.00;;;;;;5017248;28;19960;-72
2021/08/25 14:39:10;;;;;;;;;;;24.20;85.10;;;;;;5035235;28;19952;-72